sensor_id;sensor_type;location;lat;lon;timestamp;P1;durP1;ratioP1;P2;durP2;ratioP2
38455;SDS011;24237;50.106;20.014;2023-12-20T00:01:05;24.55;;;10.02;;
38455;SDS011;24237;50.106;20.014;2023-12-20T00:03:31;27.95;;;10.45;;
38455;SDS011;24237;50.106;20.014;2023-12-20T00:05:57;27.52;;;9.77;;
38455;SDS011;24237;50.106;20.014;2023-12-20T00:08:23;24.83;;;10.57;;
38455;SDS011;24237;50.106;20.014;2023-12-20T00:10:48;29.25;;;10.35;;
38455;SDS011;24237;50.106;20.014;2023-12-20T00:13:14;28.67;;;11.15;;
38455;SDS011;24237;50.106;20.014;2023-12-20T00:15:40;30.20;;;9.90;;
38455;SDS011;24237;50.106;20.014;2023-12-20T00:18:25;23.30;;;10.27;;
38455;SDS011;24237;50.106;20.014;2023-12-20T00:20:51;24.75;;;10.32;;
38455;SDS011;24237;50.106;20.014;2023-12-20T00:23:17;29.30;;;10.57;;
38455;SDS011;24237;50.106;20.014;2023-12-20T00:25:42;25.00;;;10.10;;
38455;SDS011;24237;50.106;20.014;2023-12-20T00:28:08;22.58;;;9.20;;
38455;SDS011;24237;50.106;20.014;2023-12-20T00:30:34;19.83;;;8.68;;
38455;SDS011;24237;50.106;20.014;2023-12-20T00:33:00;25.80;;;10.10;;
38455;SDS011;24237;50.106;20.014;2023-12-20T00:35:25;21.40;;;8.60;;
38455;SDS011;24237;50.106;20.014;2023-12-20T00:37:52;20.45;;;8.43;;
38455;SDS011;24237;50.106;20.014;2023-12-20T00:40:17;21.42;;;8.32;;
38455;SDS011;24237;50.106;20.014;2023-12-20T00:42:43;18.58;;;8.45;;
38455;SDS011;24237;50.106;20.014;2023-12-20T00:45:09;19.70;;;8.80;;
38455;SDS011;24237;50.106;20.014;2023-12-20T00:47:34;20.48;;;8.55;;
38455;SDS011;24237;50.106;20.014;2023-12-20T00:50:00;18.02;;;8.20;;
38455;SDS011;24237;50.106;20.014;2023-12-20T00:52:26;19.35;;;7.93;;
38455;SDS011;24237;50.106;20.014;2023-12-20T00:54:52;22.40;;;8.00;;
38455;SDS011;24237;50.106;20.014;2023-12-20T00:57:17;19.02;;;7.65;;
38455;SDS011;24237;50.106;20.014;2023-12-20T00:59:43;16.80;;;6.75;;
38455;SDS011;24237;50.106;20.014;2023-12-20T01:02:09;19.65;;;7.22;;
38455;SDS011;24237;50.106;20.014;2023-12-20T01:04:35;19.55;;;7.30;;
38455;SDS011;24237;50.106;20.014;2023-12-20T01:07:00;16.73;;;6.40;;
38455;SDS011;24237;50.106;20.014;2023-12-20T01:09:27;19.27;;;6.60;;
38455;SDS011;24237;50.106;20.014;2023-12-20T01:11:52;13.98;;;6.93;;
38455;SDS011;24237;50.106;20.014;2023-12-20T01:14:18;11.98;;;5.70;;
38455;SDS011;24237;50.106;20.014;2023-12-20T01:16:44;13.48;;;6.50;;
38455;SDS011;24237;50.106;20.014;2023-12-20T01:19:10;15.55;;;5.80;;
38455;SDS011;24237;50.106;20.014;2023-12-20T01:21:36;13.90;;;5.82;;
38455;SDS011;24237;50.106;20.014;2023-12-20T01:24:01;14.30;;;6.60;;
38455;SDS011;24237;50.106;20.014;2023-12-20T01:26:27;16.95;;;5.28;;
38455;SDS011;24237;50.106;20.014;2023-12-20T01:28:53;14.77;;;6.35;;
38455;SDS011;24237;50.106;20.014;2023-12-20T01:31:19;14.00;;;5.88;;
38455;SDS011;24237;50.106;20.014;2023-12-20T01:33:45;17.00;;;6.13;;
38455;SDS011;24237;50.106;20.014;2023-12-20T01:36:11;17.05;;;6.93;;
38455;SDS011;24237;50.106;20.014;2023-12-20T01:38:36;17.08;;;5.93;;
38455;SDS011;24237;50.106;20.014;2023-12-20T01:41:02;13.63;;;5.25;;
38455;SDS011;24237;50.106;20.014;2023-12-20T01:43:29;15.23;;;5.82;;
38455;SDS011;24237;50.106;20.014;2023-12-20T01:45:55;13.68;;;6.65;;
38455;SDS011;24237;50.106;20.014;2023-12-20T01:48:22;14.60;;;6.13;;
38455;SDS011;24237;50.106;20.014;2023-12-20T01:50:49;18.75;;;6.68;;
38455;SDS011;24237;50.106;20.014;2023-12-20T01:53:15;14.00;;;5.90;;
38455;SDS011;24237;50.106;20.014;2023-12-20T01:55:42;14.90;;;5.35;;
38455;SDS011;24237;50.106;20.014;2023-12-20T01:58:09;15.20;;;6.53;;
38455;SDS011;24237;50.106;20.014;2023-12-20T02:00:36;12.18;;;4.90;;
38455;SDS011;24237;50.106;20.014;2023-12-20T02:03:02;10.60;;;5.05;;
38455;SDS011;24237;50.106;20.014;2023-12-20T02:05:32;12.07;;;5.38;;
38455;SDS011;24237;50.106;20.014;2023-12-20T02:07:59;11.63;;;5.03;;
38455;SDS011;24237;50.106;20.014;2023-12-20T02:10:25;10.30;;;4.60;;
38455;SDS011;24237;50.106;20.014;2023-12-20T02:12:52;8.85;;;4.57;;
38455;SDS011;24237;50.106;20.014;2023-12-20T02:15:17;14.25;;;4.32;;
38455;SDS011;24237;50.106;20.014;2023-12-20T02:17:43;11.38;;;4.85;;
38455;SDS011;24237;50.106;20.014;2023-12-20T02:20:10;9.45;;;4.60;;
38455;SDS011;24237;50.106;20.014;2023-12-20T02:22:36;8.95;;;4.68;;
38455;SDS011;24237;50.106;20.014;2023-12-20T02:25:01;7.80;;;4.38;;
38455;SDS011;24237;50.106;20.014;2023-12-20T02:27:27;9.35;;;4.82;;
38455;SDS011;24237;50.106;20.014;2023-12-20T02:29:53;8.50;;;4.07;;
38455;SDS011;24237;50.106;20.014;2023-12-20T02:32:19;11.95;;;4.57;;
38455;SDS011;24237;50.106;20.014;2023-12-20T02:34:47;9.70;;;4.68;;
38455;SDS011;24237;50.106;20.014;2023-12-20T02:39:39;11.68;;;4.60;;
38455;SDS011;24237;50.106;20.014;2023-12-20T02:42:04;9.40;;;4.28;;
38455;SDS011;24237;50.106;20.014;2023-12-20T02:44:30;12.50;;;4.50;;
38455;SDS011;24237;50.106;20.014;2023-12-20T02:46:55;10.57;;;4.63;;
38455;SDS011;24237;50.106;20.014;2023-12-20T02:49:21;9.00;;;4.70;;
38455;SDS011;24237;50.106;20.014;2023-12-20T02:51:47;7.15;;;3.70;;
38455;SDS011;24237;50.106;20.014;2023-12-20T02:54:12;10.00;;;5.10;;
38455;SDS011;24237;50.106;20.014;2023-12-20T02:56:38;12.30;;;4.68;;
38455;SDS011;24237;50.106;20.014;2023-12-20T02:59:04;7.38;;;4.18;;
38455;SDS011;24237;50.106;20.014;2023-12-20T03:01:31;12.20;;;4.27;;
38455;SDS011;24237;50.106;20.014;2023-12-20T03:03:56;8.73;;;4.25;;
38455;SDS011;24237;50.106;20.014;2023-12-20T03:06:22;9.77;;;4.18;;
38455;SDS011;24237;50.106;20.014;2023-12-20T03:08:48;10.23;;;4.20;;
38455;SDS011;24237;50.106;20.014;2023-12-20T03:11:14;9.85;;;4.30;;
38455;SDS011;24237;50.106;20.014;2023-12-20T03:13:39;11.25;;;3.65;;
38455;SDS011;24237;50.106;20.014;2023-12-20T03:16:11;7.35;;;3.85;;
38455;SDS011;24237;50.106;20.014;2023-12-20T03:18:37;6.22;;;3.55;;
38455;SDS011;24237;50.106;20.014;2023-12-20T03:21:04;10.88;;;4.03;;
38455;SDS011;24237;50.106;20.014;2023-12-20T03:23:30;9.80;;;3.87;;
38455;SDS011;24237;50.106;20.014;2023-12-20T03:25:57;10.45;;;4.00;;
38455;SDS011;24237;50.106;20.014;2023-12-20T03:28:23;8.50;;;4.05;;
38455;SDS011;24237;50.106;20.014;2023-12-20T03:30:50;8.10;;;3.53;;
38455;SDS011;24237;50.106;20.014;2023-12-20T03:33:15;7.28;;;3.88;;
38455;SDS011;24237;50.106;20.014;2023-12-20T03:35:41;9.55;;;4.22;;
38455;SDS011;24237;50.106;20.014;2023-12-20T03:38:07;13.13;;;4.45;;
38455;SDS011;24237;50.106;20.014;2023-12-20T03:40:33;8.88;;;3.97;;
38455;SDS011;24237;50.106;20.014;2023-12-20T03:42:58;11.88;;;4.10;;
38455;SDS011;24237;50.106;20.014;2023-12-20T03:45:24;8.25;;;3.47;;
38455;SDS011;24237;50.106;20.014;2023-12-20T03:47:51;9.32;;;4.38;;
38455;SDS011;24237;50.106;20.014;2023-12-20T03:50:24;7.05;;;3.88;;
38455;SDS011;24237;50.106;20.014;2023-12-20T03:52:50;10.10;;;4.35;;
38455;SDS011;24237;50.106;20.014;2023-12-20T03:55:16;16.65;;;4.28;;
38455;SDS011;24237;50.106;20.014;2023-12-20T03:57:42;10.98;;;5.15;;
38455;SDS011;24237;50.106;20.014;2023-12-20T04:00:08;13.13;;;6.18;;
38455;SDS011;24237;50.106;20.014;2023-12-20T04:02:36;7.93;;;3.97;;
38455;SDS011;24237;50.106;20.014;2023-12-20T04:05:05;12.90;;;4.88;;
38455;SDS011;24237;50.106;20.014;2023-12-20T04:07:32;10.10;;;5.03;;
38455;SDS011;24237;50.106;20.014;2023-12-20T04:09:58;7.10;;;3.65;;
38455;SDS011;24237;50.106;20.014;2023-12-20T04:12:24;6.45;;;3.28;;
38455;SDS011;24237;50.106;20.014;2023-12-20T04:14:50;8.38;;;4.47;;
38455;SDS011;24237;50.106;20.014;2023-12-20T04:17:15;10.98;;;5.13;;
38455;SDS011;24237;50.106;20.014;2023-12-20T04:19:44;9.98;;;3.75;;
38455;SDS011;24237;50.106;20.014;2023-12-20T04:22:10;6.55;;;3.55;;
38455;SDS011;24237;50.106;20.014;2023-12-20T04:24:35;7.47;;;3.40;;
38455;SDS011;24237;50.106;20.014;2023-12-20T04:27:01;7.65;;;3.90;;
38455;SDS011;24237;50.106;20.014;2023-12-20T04:29:27;8.20;;;3.47;;
38455;SDS011;24237;50.106;20.014;2023-12-20T04:31:53;8.45;;;3.95;;
38455;SDS011;24237;50.106;20.014;2023-12-20T04:34:19;6.75;;;4.13;;
38455;SDS011;24237;50.106;20.014;2023-12-20T04:36:45;8.65;;;3.83;;
38455;SDS011;24237;50.106;20.014;2023-12-20T04:39:11;14.93;;;4.22;;
38455;SDS011;24237;50.106;20.014;2023-12-20T04:41:38;5.78;;;3.58;;
38455;SDS011;24237;50.106;20.014;2023-12-20T04:44:04;6.63;;;3.97;;
38455;SDS011;24237;50.106;20.014;2023-12-20T04:46:31;11.13;;;3.97;;
38455;SDS011;24237;50.106;20.014;2023-12-20T04:48:57;11.70;;;3.88;;
38455;SDS011;24237;50.106;20.014;2023-12-20T04:51:22;9.55;;;3.97;;
38455;SDS011;24237;50.106;20.014;2023-12-20T04:53:48;7.57;;;3.80;;
38455;SDS011;24237;50.106;20.014;2023-12-20T04:56:14;7.18;;;3.42;;
38455;SDS011;24237;50.106;20.014;2023-12-20T04:58:40;11.20;;;3.97;;
38455;SDS011;24237;50.106;20.014;2023-12-20T05:01:06;12.05;;;3.50;;
38455;SDS011;24237;50.106;20.014;2023-12-20T05:03:32;11.02;;;3.45;;
38455;SDS011;24237;50.106;20.014;2023-12-20T05:05:58;7.35;;;3.58;;
38455;SDS011;24237;50.106;20.014;2023-12-20T05:08:23;7.22;;;3.35;;
38455;SDS011;24237;50.106;20.014;2023-12-20T05:10:50;8.73;;;3.65;;
38455;SDS011;24237;50.106;20.014;2023-12-20T05:13:16;7.37;;;3.53;;
38455;SDS011;24237;50.106;20.014;2023-12-20T05:15:42;4.78;;;2.75;;
38455;SDS011;24237;50.106;20.014;2023-12-20T05:18:08;6.15;;;3.20;;
38455;SDS011;24237;50.106;20.014;2023-12-20T05:20:33;12.48;;;3.05;;
38455;SDS011;24237;50.106;20.014;2023-12-20T05:22:59;4.90;;;2.67;;
38455;SDS011;24237;50.106;20.014;2023-12-20T05:25:25;6.07;;;2.75;;
38455;SDS011;24237;50.106;20.014;2023-12-20T05:27:51;5.32;;;2.60;;
38455;SDS011;24237;50.106;20.014;2023-12-20T05:30:16;6.20;;;3.30;;
38455;SDS011;24237;50.106;20.014;2023-12-20T05:32:42;5.63;;;3.35;;
38455;SDS011;24237;50.106;20.014;2023-12-20T05:35:07;5.50;;;3.05;;
38455;SDS011;24237;50.106;20.014;2023-12-20T05:37:33;6.40;;;3.03;;
38455;SDS011;24237;50.106;20.014;2023-12-20T05:39:59;8.25;;;3.42;;
38455;SDS011;24237;50.106;20.014;2023-12-20T05:42:25;4.18;;;2.78;;
38455;SDS011;24237;50.106;20.014;2023-12-20T05:44:50;5.68;;;3.28;;
38455;SDS011;24237;50.106;20.014;2023-12-20T05:47:16;5.00;;;3.08;;
38455;SDS011;24237;50.106;20.014;2023-12-20T05:49:42;6.85;;;3.60;;
38455;SDS011;24237;50.106;20.014;2023-12-20T05:52:09;8.10;;;4.07;;
38455;SDS011;24237;50.106;20.014;2023-12-20T05:54:34;8.65;;;3.20;;
38455;SDS011;24237;50.106;20.014;2023-12-20T05:57:00;7.35;;;3.63;;
38455;SDS011;24237;50.106;20.014;2023-12-20T05:59:26;6.75;;;3.45;;
38455;SDS011;24237;50.106;20.014;2023-12-20T06:01:52;6.72;;;3.83;;
38455;SDS011;24237;50.106;20.014;2023-12-20T06:04:17;9.90;;;4.00;;
38455;SDS011;24237;50.106;20.014;2023-12-20T06:06:43;7.20;;;3.80;;
38455;SDS011;24237;50.106;20.014;2023-12-20T06:09:09;12.30;;;4.05;;
38455;SDS011;24237;50.106;20.014;2023-12-20T06:11:35;9.30;;;4.75;;
38455;SDS011;24237;50.106;20.014;2023-12-20T06:14:01;8.48;;;4.07;;
38455;SDS011;24237;50.106;20.014;2023-12-20T06:16:27;8.80;;;4.20;;
38455;SDS011;24237;50.106;20.014;2023-12-20T06:18:52;14.55;;;5.72;;
38455;SDS011;24237;50.106;20.014;2023-12-20T06:21:18;10.05;;;5.55;;
38455;SDS011;24237;50.106;20.014;2023-12-20T06:23:44;12.73;;;4.85;;
38455;SDS011;24237;50.106;20.014;2023-12-20T06:26:10;10.85;;;5.30;;
38455;SDS011;24237;50.106;20.014;2023-12-20T06:28:35;12.00;;;5.45;;
38455;SDS011;24237;50.106;20.014;2023-12-20T06:31:01;10.77;;;6.10;;
38455;SDS011;24237;50.106;20.014;2023-12-20T06:33:28;10.75;;;6.25;;
38455;SDS011;24237;50.106;20.014;2023-12-20T06:35:55;12.98;;;6.47;;
38455;SDS011;24237;50.106;20.014;2023-12-20T06:38:21;15.15;;;7.68;;
38455;SDS011;24237;50.106;20.014;2023-12-20T06:40:47;15.32;;;7.72;;
38455;SDS011;24237;50.106;20.014;2023-12-20T06:43:13;13.02;;;7.97;;
38455;SDS011;24237;50.106;20.014;2023-12-20T06:45:38;10.93;;;7.43;;
38455;SDS011;24237;50.106;20.014;2023-12-20T06:48:04;14.40;;;7.57;;
38455;SDS011;24237;50.106;20.014;2023-12-20T06:50:30;15.13;;;7.38;;
38455;SDS011;24237;50.106;20.014;2023-12-20T06:52:56;15.70;;;7.47;;
38455;SDS011;24237;50.106;20.014;2023-12-20T06:55:22;14.55;;;7.90;;
38455;SDS011;24237;50.106;20.014;2023-12-20T06:57:48;12.30;;;8.00;;
38455;SDS011;24237;50.106;20.014;2023-12-20T07:00:14;14.60;;;7.97;;
38455;SDS011;24237;50.106;20.014;2023-12-20T07:02:40;13.82;;;7.65;;
38455;SDS011;24237;50.106;20.014;2023-12-20T07:05:06;18.13;;;8.43;;
38455;SDS011;24237;50.106;20.014;2023-12-20T07:07:32;16.15;;;7.93;;
38455;SDS011;24237;50.106;20.014;2023-12-20T07:09:57;13.88;;;7.72;;
38455;SDS011;24237;50.106;20.014;2023-12-20T07:12:23;14.18;;;7.43;;
38455;SDS011;24237;50.106;20.014;2023-12-20T07:14:49;17.67;;;7.80;;
38455;SDS011;24237;50.106;20.014;2023-12-20T07:17:14;13.65;;;6.72;;
38455;SDS011;24237;50.106;20.014;2023-12-20T07:19:41;12.07;;;6.55;;
38455;SDS011;24237;50.106;20.014;2023-12-20T07:22:07;11.55;;;6.93;;
38455;SDS011;24237;50.106;20.014;2023-12-20T07:24:33;14.82;;;8.50;;
38455;SDS011;24237;50.106;20.014;2023-12-20T07:26:59;11.77;;;5.40;;
38455;SDS011;24237;50.106;20.014;2023-12-20T07:29:26;11.63;;;6.88;;
38455;SDS011;24237;50.106;20.014;2023-12-20T07:31:52;17.88;;;8.45;;
38455;SDS011;24237;50.106;20.014;2023-12-20T07:34:19;20.58;;;7.18;;
38455;SDS011;24237;50.106;20.014;2023-12-20T07:36:48;14.77;;;7.55;;
38455;SDS011;24237;50.106;20.014;2023-12-20T07:39:14;15.77;;;7.88;;
38455;SDS011;24237;50.106;20.014;2023-12-20T07:41:40;14.55;;;7.43;;
38455;SDS011;24237;50.106;20.014;2023-12-20T07:44:06;13.30;;;7.18;;
38455;SDS011;24237;50.106;20.014;2023-12-20T07:46:32;14.77;;;7.50;;
38455;SDS011;24237;50.106;20.014;2023-12-20T07:48:58;11.65;;;6.88;;
38455;SDS011;24237;50.106;20.014;2023-12-20T07:51:23;13.68;;;7.15;;
38455;SDS011;24237;50.106;20.014;2023-12-20T07:53:49;13.40;;;6.38;;
38455;SDS011;24237;50.106;20.014;2023-12-20T07:56:17;16.00;;;9.07;;
38455;SDS011;24237;50.106;20.014;2023-12-20T07:58:43;12.48;;;6.75;;
38455;SDS011;24237;50.106;20.014;2023-12-20T08:01:13;9.57;;;6.20;;
38455;SDS011;24237;50.106;20.014;2023-12-20T08:03:40;11.15;;;5.47;;
38455;SDS011;24237;50.106;20.014;2023-12-20T08:06:06;10.18;;;5.38;;
38455;SDS011;24237;50.106;20.014;2023-12-20T08:08:32;10.45;;;5.85;;
38455;SDS011;24237;50.106;20.014;2023-12-20T08:10:57;12.68;;;6.78;;
38455;SDS011;24237;50.106;20.014;2023-12-20T08:13:25;12.60;;;6.15;;
38455;SDS011;24237;50.106;20.014;2023-12-20T08:15:51;11.23;;;5.97;;
38455;SDS011;24237;50.106;20.014;2023-12-20T08:18:17;10.00;;;6.05;;
38455;SDS011;24237;50.106;20.014;2023-12-20T08:20:43;15.45;;;7.85;;
38455;SDS011;24237;50.106;20.014;2023-12-20T08:23:09;13.32;;;7.57;;
38455;SDS011;24237;50.106;20.014;2023-12-20T08:25:35;12.32;;;7.25;;
38455;SDS011;24237;50.106;20.014;2023-12-20T08:28:02;10.82;;;6.78;;
38455;SDS011;24237;50.106;20.014;2023-12-20T08:30:29;13.77;;;7.82;;
38455;SDS011;24237;50.106;20.014;2023-12-20T08:32:56;11.50;;;6.67;;
38455;SDS011;24237;50.106;20.014;2023-12-20T08:35:21;13.13;;;7.38;;
38455;SDS011;24237;50.106;20.014;2023-12-20T08:37:47;14.05;;;8.20;;
38455;SDS011;24237;50.106;20.014;2023-12-20T08:40:13;15.30;;;8.23;;
38455;SDS011;24237;50.106;20.014;2023-12-20T08:42:39;13.77;;;7.80;;
38455;SDS011;24237;50.106;20.014;2023-12-20T08:45:04;16.38;;;9.32;;
38455;SDS011;24237;50.106;20.014;2023-12-20T08:47:30;15.73;;;9.07;;
38455;SDS011;24237;50.106;20.014;2023-12-20T08:49:56;15.52;;;8.40;;
38455;SDS011;24237;50.106;20.014;2023-12-20T08:52:25;18.10;;;8.80;;
38455;SDS011;24237;50.106;20.014;2023-12-20T08:54:54;14.88;;;8.45;;
38455;SDS011;24237;50.106;20.014;2023-12-20T08:57:20;16.70;;;8.90;;
38455;SDS011;24237;50.106;20.014;2023-12-20T08:59:48;15.75;;;8.98;;
38455;SDS011;24237;50.106;20.014;2023-12-20T09:02:13;20.85;;;9.13;;
38455;SDS011;24237;50.106;20.014;2023-12-20T09:04:39;20.80;;;9.88;;
38455;SDS011;24237;50.106;20.014;2023-12-20T09:07:05;17.02;;;9.27;;
38455;SDS011;24237;50.106;20.014;2023-12-20T09:09:31;14.93;;;9.27;;
38455;SDS011;24237;50.106;20.014;2023-12-20T09:11:57;18.08;;;9.73;;
38455;SDS011;24237;50.106;20.014;2023-12-20T09:14:23;17.45;;;9.77;;
38455;SDS011;24237;50.106;20.014;2023-12-20T09:16:49;15.40;;;9.07;;
38455;SDS011;24237;50.106;20.014;2023-12-20T09:19:16;15.10;;;8.85;;
38455;SDS011;24237;50.106;20.014;2023-12-20T09:21:42;16.50;;;10.82;;
38455;SDS011;24237;50.106;20.014;2023-12-20T09:24:08;17.02;;;10.85;;
38455;SDS011;24237;50.106;20.014;2023-12-20T09:26:34;16.98;;;10.85;;
38455;SDS011;24237;50.106;20.014;2023-12-20T09:29:00;17.98;;;10.13;;
38455;SDS011;24237;50.106;20.014;2023-12-20T09:31:26;19.05;;;11.15;;
38455;SDS011;24237;50.106;20.014;2023-12-20T09:33:51;15.45;;;9.18;;
38455;SDS011;24237;50.106;20.014;2023-12-20T09:36:17;16.23;;;10.00;;
38455;SDS011;24237;50.106;20.014;2023-12-20T09:38:43;19.95;;;11.65;;
38455;SDS011;24237;50.106;20.014;2023-12-20T09:41:09;16.95;;;10.30;;
38455;SDS011;24237;50.106;20.014;2023-12-20T09:43:35;19.38;;;10.40;;
38455;SDS011;24237;50.106;20.014;2023-12-20T09:46:02;19.05;;;10.30;;
38455;SDS011;24237;50.106;20.014;2023-12-20T09:48:32;18.80;;;10.60;;
38455;SDS011;24237;50.106;20.014;2023-12-20T09:50:58;20.15;;;10.63;;
38455;SDS011;24237;50.106;20.014;2023-12-20T09:53:24;16.48;;;10.45;;
38455;SDS011;24237;50.106;20.014;2023-12-20T09:55:55;17.73;;;9.52;;
38455;SDS011;24237;50.106;20.014;2023-12-20T09:58:27;21.15;;;10.18;;
38455;SDS011;24237;50.106;20.014;2023-12-20T10:00:53;19.13;;;10.45;;
38455;SDS011;24237;50.106;20.014;2023-12-20T10:03:23;19.08;;;10.05;;
38455;SDS011;24237;50.106;20.014;2023-12-20T10:05:52;15.10;;;9.38;;
38455;SDS011;24237;50.106;20.014;2023-12-20T10:08:21;14.52;;;8.50;;
38455;SDS011;24237;50.106;20.014;2023-12-20T10:10:47;15.50;;;9.00;;
38455;SDS011;24237;50.106;20.014;2023-12-20T10:13:13;15.05;;;8.52;;
38455;SDS011;24237;50.106;20.014;2023-12-20T10:15:40;14.38;;;9.13;;
38455;SDS011;24237;50.106;20.014;2023-12-20T10:18:06;16.85;;;8.80;;
38455;SDS011;24237;50.106;20.014;2023-12-20T10:20:32;13.82;;;9.15;;
38455;SDS011;24237;50.106;20.014;2023-12-20T10:22:58;12.88;;;8.23;;
38455;SDS011;24237;50.106;20.014;2023-12-20T10:25:25;15.55;;;8.15;;
38455;SDS011;24237;50.106;20.014;2023-12-20T10:30:36;14.27;;;8.73;;
38455;SDS011;24237;50.106;20.014;2023-12-20T10:33:02;12.13;;;7.72;;
38455;SDS011;24237;50.106;20.014;2023-12-20T10:35:27;15.32;;;7.45;;
38455;SDS011;24237;50.106;20.014;2023-12-20T10:37:55;12.52;;;7.60;;
38455;SDS011;24237;50.106;20.014;2023-12-20T10:40:21;12.30;;;6.60;;
38455;SDS011;24237;50.106;20.014;2023-12-20T10:42:47;12.40;;;7.90;;
38455;SDS011;24237;50.106;20.014;2023-12-20T10:45:15;13.48;;;7.15;;
38455;SDS011;24237;50.106;20.014;2023-12-20T10:47:42;12.18;;;7.50;;
38455;SDS011;24237;50.106;20.014;2023-12-20T10:50:11;12.20;;;7.05;;
38455;SDS011;24237;50.106;20.014;2023-12-20T10:52:37;12.60;;;7.63;;
38455;SDS011;24237;50.106;20.014;2023-12-20T10:55:03;11.55;;;6.93;;
38455;SDS011;24237;50.106;20.014;2023-12-20T10:57:30;14.90;;;6.65;;
38455;SDS011;24237;50.106;20.014;2023-12-20T10:59:56;13.35;;;7.43;;
38455;SDS011;24237;50.106;20.014;2023-12-20T11:02:29;14.65;;;7.65;;
38455;SDS011;24237;50.106;20.014;2023-12-20T11:05:04;13.50;;;7.45;;
38455;SDS011;24237;50.106;20.014;2023-12-20T11:07:40;11.48;;;7.68;;
38455;SDS011;24237;50.106;20.014;2023-12-20T11:10:30;13.18;;;7.43;;
38455;SDS011;24237;50.106;20.014;2023-12-20T11:13:17;11.57;;;7.57;;
38455;SDS011;24237;50.106;20.014;2023-12-20T11:15:47;11.10;;;7.43;;
38455;SDS011;24237;50.106;20.014;2023-12-20T11:18:14;14.25;;;8.20;;
38455;SDS011;24237;50.106;20.014;2023-12-20T11:20:41;12.27;;;7.88;;
38455;SDS011;24237;50.106;20.014;2023-12-20T11:23:10;14.23;;;8.60;;
38455;SDS011;24237;50.106;20.014;2023-12-20T11:28:30;14.20;;;8.05;;
38455;SDS011;24237;50.106;20.014;2023-12-20T11:30:57;15.07;;;9.30;;
38455;SDS011;24237;50.106;20.014;2023-12-20T11:35:56;14.32;;;8.60;;
38455;SDS011;24237;50.106;20.014;2023-12-20T11:38:24;15.60;;;8.05;;
38455;SDS011;24237;50.106;20.014;2023-12-20T11:40:50;12.50;;;7.93;;
38455;SDS011;24237;50.106;20.014;2023-12-20T11:43:31;14.52;;;7.97;;
38455;SDS011;24237;50.106;20.014;2023-12-20T11:46:06;13.15;;;7.15;;
38455;SDS011;24237;50.106;20.014;2023-12-20T11:48:34;15.55;;;7.43;;
38455;SDS011;24237;50.106;20.014;2023-12-20T11:51:02;10.20;;;6.50;;
38455;SDS011;24237;50.106;20.014;2023-12-20T11:53:29;16.20;;;7.63;;
38455;SDS011;24237;50.106;20.014;2023-12-20T11:55:57;12.60;;;7.18;;
38455;SDS011;24237;50.106;20.014;2023-12-20T11:58:22;11.68;;;7.13;;
38455;SDS011;24237;50.106;20.014;2023-12-20T12:00:49;11.40;;;6.43;;
38455;SDS011;24237;50.106;20.014;2023-12-20T12:03:15;16.70;;;6.57;;
38455;SDS011;24237;50.106;20.014;2023-12-20T12:05:41;11.93;;;6.97;;
38455;SDS011;24237;50.106;20.014;2023-12-20T12:08:07;9.40;;;5.50;;
38455;SDS011;24237;50.106;20.014;2023-12-20T12:10:33;8.32;;;5.05;;
38455;SDS011;24237;50.106;20.014;2023-12-20T12:12:59;8.40;;;4.97;;
38455;SDS011;24237;50.106;20.014;2023-12-20T12:15:25;10.13;;;5.10;;
38455;SDS011;24237;50.106;20.014;2023-12-20T12:17:55;9.75;;;5.95;;
38455;SDS011;24237;50.106;20.014;2023-12-20T12:20:21;10.70;;;6.20;;
38455;SDS011;24237;50.106;20.014;2023-12-20T12:25:48;10.23;;;5.63;;
38455;SDS011;24237;50.106;20.014;2023-12-20T12:28:14;7.95;;;5.32;;
38455;SDS011;24237;50.106;20.014;2023-12-20T12:30:39;9.02;;;5.05;;
38455;SDS011;24237;50.106;20.014;2023-12-20T12:33:05;9.15;;;5.40;;
38455;SDS011;24237;50.106;20.014;2023-12-20T12:35:31;8.73;;;5.72;;
38455;SDS011;24237;50.106;20.014;2023-12-20T12:37:58;8.57;;;5.40;;
38455;SDS011;24237;50.106;20.014;2023-12-20T12:40:25;8.77;;;6.10;;
38455;SDS011;24237;50.106;20.014;2023-12-20T12:42:51;13.90;;;6.90;;
38455;SDS011;24237;50.106;20.014;2023-12-20T12:45:16;10.63;;;5.88;;
38455;SDS011;24237;50.106;20.014;2023-12-20T12:47:42;12.95;;;6.40;;
38455;SDS011;24237;50.106;20.014;2023-12-20T12:50:09;13.20;;;6.90;;
38455;SDS011;24237;50.106;20.014;2023-12-20T12:52:35;13.02;;;7.68;;
38455;SDS011;24237;50.106;20.014;2023-12-20T12:55:01;15.25;;;7.10;;
38455;SDS011;24237;50.106;20.014;2023-12-20T12:57:26;11.05;;;6.75;;
38455;SDS011;24237;50.106;20.014;2023-12-20T12:59:53;11.10;;;6.97;;
38455;SDS011;24237;50.106;20.014;2023-12-20T13:02:19;11.52;;;6.93;;
38455;SDS011;24237;50.106;20.014;2023-12-20T13:04:45;11.20;;;6.88;;
38455;SDS011;24237;50.106;20.014;2023-12-20T13:07:11;12.43;;;7.70;;
38455;SDS011;24237;50.106;20.014;2023-12-20T13:09:37;14.63;;;8.07;;
38455;SDS011;24237;50.106;20.014;2023-12-20T13:12:03;11.05;;;6.78;;
38455;SDS011;24237;50.106;20.014;2023-12-20T13:17:02;11.75;;;6.47;;
38455;SDS011;24237;50.106;20.014;2023-12-20T13:19:28;11.67;;;6.90;;
38455;SDS011;24237;50.106;20.014;2023-12-20T13:21:55;12.82;;;7.57;;
38455;SDS011;24237;50.106;20.014;2023-12-20T13:24:21;13.82;;;7.47;;
38455;SDS011;24237;50.106;20.014;2023-12-20T13:26:46;11.70;;;7.57;;
38455;SDS011;24237;50.106;20.014;2023-12-20T13:29:12;13.77;;;7.35;;
38455;SDS011;24237;50.106;20.014;2023-12-20T13:31:38;16.23;;;7.65;;
38455;SDS011;24237;50.106;20.014;2023-12-20T13:34:05;13.45;;;8.70;;
38455;SDS011;24237;50.106;20.014;2023-12-20T13:36:31;10.13;;;6.25;;
38455;SDS011;24237;50.106;20.014;2023-12-20T13:38:57;13.30;;;8.35;;
38455;SDS011;24237;50.106;20.014;2023-12-20T13:41:22;12.30;;;6.97;;
38455;SDS011;24237;50.106;20.014;2023-12-20T13:43:48;13.90;;;6.15;;
38455;SDS011;24237;50.106;20.014;2023-12-20T13:46:14;14.05;;;7.68;;
38455;SDS011;24237;50.106;20.014;2023-12-20T13:48:40;11.35;;;7.15;;
38455;SDS011;24237;50.106;20.014;2023-12-20T13:51:06;13.07;;;7.82;;
38455;SDS011;24237;50.106;20.014;2023-12-20T13:53:32;15.98;;;7.55;;
38455;SDS011;24237;50.106;20.014;2023-12-20T13:55:58;11.48;;;7.07;;
38455;SDS011;24237;50.106;20.014;2023-12-20T13:58:25;14.68;;;6.95;;
38455;SDS011;24237;50.106;20.014;2023-12-20T14:00:51;13.85;;;6.93;;
38455;SDS011;24237;50.106;20.014;2023-12-20T14:03:17;12.40;;;7.15;;
38455;SDS011;24237;50.106;20.014;2023-12-20T14:05:42;14.60;;;7.55;;
38455;SDS011;24237;50.106;20.014;2023-12-20T14:08:08;14.73;;;7.13;;
38455;SDS011;24237;50.106;20.014;2023-12-20T14:10:35;12.73;;;7.30;;
38455;SDS011;24237;50.106;20.014;2023-12-20T14:13:01;15.18;;;7.13;;
38455;SDS011;24237;50.106;20.014;2023-12-20T14:15:26;11.88;;;7.00;;
38455;SDS011;24237;50.106;20.014;2023-12-20T14:17:52;11.90;;;6.60;;
38455;SDS011;24237;50.106;20.014;2023-12-20T14:20:18;11.93;;;6.97;;
38455;SDS011;24237;50.106;20.014;2023-12-20T14:22:44;11.95;;;7.25;;
38455;SDS011;24237;50.106;20.014;2023-12-20T14:25:13;10.45;;;6.28;;
38455;SDS011;24237;50.106;20.014;2023-12-20T14:27:39;16.60;;;7.53;;
38455;SDS011;24237;50.106;20.014;2023-12-20T14:30:08;14.00;;;6.55;;
38455;SDS011;24237;50.106;20.014;2023-12-20T14:32:34;9.90;;;6.55;;
38455;SDS011;24237;50.106;20.014;2023-12-20T14:35:04;10.38;;;6.88;;